sensor_id;sensor_type;location;lat;lon;timestamp;temperature;humidity
18297;DHT22;18066;52.106;5.534;2023-07-29T00:01:48;19.10;99.90
18297;DHT22;18066;52.106;5.534;2023-07-29T00:04:15;19.00;99.90
18297;DHT22;18066;52.106;5.534;2023-07-29T00:06:42;19.10;99.90
18297;DHT22;18066;52.106;5.534;2023-07-29T00:09:09;19.10;99.90
18297;DHT22;18066;52.106;5.534;2023-07-29T00:11:39;19.10;99.90
18297;DHT22;18066;52.106;5.534;2023-07-29T00:14:06;19.00;99.90
18297;DHT22;18066;52.106;5.534;2023-07-29T00:16:33;19.00;99.90
18297;DHT22;18066;52.106;5.534;2023-07-29T00:19:04;19.00;99.90
18297;DHT22;18066;52.106;5.534;2023-07-29T00:21:31;19.00;99.90
18297;DHT22;18066;52.106;5.534;2023-07-29T00:23:58;18.90;99.90
18297;DHT22;18066;52.106;5.534;2023-07-29T00:26:27;19.00;99.90
18297;DHT22;18066;52.106;5.534;2023-07-29T00:28:54;19.00;99.90
18297;DHT22;18066;52.106;5.534;2023-07-29T00:31:21;19.00;99.90
18297;DHT22;18066;52.106;5.534;2023-07-29T00:33:51;18.90;99.90
18297;DHT22;18066;52.106;5.534;2023-07-29T00:36:20;18.80;99.90
18297;DHT22;18066;52.106;5.534;2023-07-29T00:38:47;18.80;99.90
18297;DHT22;18066;52.106;5.534;2023-07-29T00:41:14;18.80;99.90
18297;DHT22;18066;52.106;5.534;2023-07-29T00:43:42;18.70;99.90
18297;DHT22;18066;52.106;5.534;2023-07-29T00:46:09;18.70;99.90
18297;DHT22;18066;52.106;5.534;2023-07-29T00:48:38;18.70;99.90
18297;DHT22;18066;52.106;5.534;2023-07-29T00:51:07;18.50;99.90
18297;DHT22;18066;52.106;5.534;2023-07-29T00:53:35;18.40;99.90
18297;DHT22;18066;52.106;5.534;2023-07-29T00:56:03;18.50;99.90
18297;DHT22;18066;52.106;5.534;2023-07-29T00:58:30;18.50;99.90
18297;DHT22;18066;52.106;5.534;2023-07-29T01:00:57;18.50;99.90
18297;DHT22;18066;52.106;5.534;2023-07-29T01:03:24;18.60;99.90
18297;DHT22;18066;52.106;5.534;2023-07-29T01:06:01;18.60;99.90
18297;DHT22;18066;52.106;5.534;2023-07-29T01:08:41;18.70;99.90
18297;DHT22;18066;52.106;5.534;2023-07-29T01:11:21;18.80;99.90
18297;DHT22;18066;52.106;5.534;2023-07-29T01:13:53;18.70;99.90
18297;DHT22;18066;52.106;5.534;2023-07-29T01:16:30;18.70;99.90
18297;DHT22;18066;52.106;5.534;2023-07-29T01:19:05;18.70;99.90
18297;DHT22;18066;52.106;5.534;2023-07-29T01:21:34;18.60;99.90
18297;DHT22;18066;52.106;5.534;2023-07-29T01:24:06;18.70;99.90
18297;DHT22;18066;52.106;5.534;2023-07-29T01:26:33;18.70;99.90
18297;DHT22;18066;52.106;5.534;2023-07-29T01:29:03;18.70;99.90
18297;DHT22;18066;52.106;5.534;2023-07-29T01:31:33;18.70;99.90
18297;DHT22;18066;52.106;5.534;2023-07-29T01:34:07;18.80;99.90
18297;DHT22;18066;52.106;5.534;2023-07-29T01:36:39;18.70;99.90
18297;DHT22;18066;52.106;5.534;2023-07-29T01:39:11;18.70;99.90
18297;DHT22;18066;52.106;5.534;2023-07-29T01:41:39;18.70;99.90
18297;DHT22;18066;52.106;5.534;2023-07-29T01:44:07;18.70;99.90
18297;DHT22;18066;52.106;5.534;2023-07-29T01:46:39;18.70;99.90
18297;DHT22;18066;52.106;5.534;2023-07-29T01:49:06;18.70;99.90
18297;DHT22;18066;52.106;5.534;2023-07-29T01:51:33;18.70;99.90
18297;DHT22;18066;52.106;5.534;2023-07-29T01:54:00;18.70;99.90
18297;DHT22;18066;52.106;5.534;2023-07-29T01:56:28;18.70;99.90
18297;DHT22;18066;52.106;5.534;2023-07-29T01:58:56;18.70;99.90
18297;DHT22;18066;52.106;5.534;2023-07-29T02:01:23;18.60;99.90
18297;DHT22;18066;52.106;5.534;2023-07-29T02:03:50;18.60;99.90
18297;DHT22;18066;52.106;5.534;2023-07-29T02:06:20;18.60;99.90
18297;DHT22;18066;52.106;5.534;2023-07-29T02:08:49;18.60;99.90
18297;DHT22;18066;52.106;5.534;2023-07-29T02:11:16;18.60;99.90
18297;DHT22;18066;52.106;5.534;2023-07-29T02:13:54;18.60;99.90
18297;DHT22;18066;52.106;5.534;2023-07-29T02:16:21;18.60;99.90
18297;DHT22;18066;52.106;5.534;2023-07-29T02:18:49;18.70;99.90
18297;DHT22;18066;52.106;5.534;2023-07-29T02:21:19;18.70;99.90
18297;DHT22;18066;52.106;5.534;2023-07-29T02:23:47;18.70;99.90
18297;DHT22;18066;52.106;5.534;2023-07-29T02:26:14;18.70;99.90
18297;DHT22;18066;52.106;5.534;2023-07-29T02:28:41;18.70;99.90
18297;DHT22;18066;52.106;5.534;2023-07-29T02:31:15;18.70;99.90
18297;DHT22;18066;52.106;5.534;2023-07-29T02:33:42;18.70;99.90
18297;DHT22;18066;52.106;5.534;2023-07-29T02:36:12;18.70;99.90
18297;DHT22;18066;52.106;5.534;2023-07-29T02:38:40;18.60;99.90
18297;DHT22;18066;52.106;5.534;2023-07-29T02:41:10;18.50;99.90
18297;DHT22;18066;52.106;5.534;2023-07-29T02:43:37;18.50;99.90
18297;DHT22;18066;52.106;5.534;2023-07-29T02:46:06;18.50;99.90
18297;DHT22;18066;52.106;5.534;2023-07-29T02:48:37;18.50;99.90
18297;DHT22;18066;52.106;5.534;2023-07-29T02:51:04;18.50;99.90
18297;DHT22;18066;52.106;5.534;2023-07-29T02:53:31;18.40;99.90
18297;DHT22;18066;52.106;5.534;2023-07-29T02:55:58;18.40;99.90
18297;DHT22;18066;52.106;5.534;2023-07-29T02:58:26;18.40;99.90
18297;DHT22;18066;52.106;5.534;2023-07-29T03:00:53;18.30;99.90
18297;DHT22;18066;52.106;5.534;2023-07-29T03:03:20;18.30;99.90
18297;DHT22;18066;52.106;5.534;2023-07-29T03:05:48;18.30;99.90
18297;DHT22;18066;52.106;5.534;2023-07-29T03:08:15;18.30;99.90
18297;DHT22;18066;52.106;5.534;2023-07-29T03:10:42;18.30;99.90
18297;DHT22;18066;52.106;5.534;2023-07-29T03:13:09;18.30;99.90
18297;DHT22;18066;52.106;5.534;2023-07-29T03:15:36;18.20;99.90
18297;DHT22;18066;52.106;5.534;2023-07-29T03:18:04;18.10;99.90
18297;DHT22;18066;52.106;5.534;2023-07-29T03:20:31;18.20;99.90
18297;DHT22;18066;52.106;5.534;2023-07-29T03:22:59;18.20;99.90
18297;DHT22;18066;52.106;5.534;2023-07-29T03:25:26;18.20;99.90
18297;DHT22;18066;52.106;5.534;2023-07-29T03:27:56;18.10;99.90
18297;DHT22;18066;52.106;5.534;2023-07-29T03:30:23;18.20;99.90
18297;DHT22;18066;52.106;5.534;2023-07-29T03:32:50;18.20;99.90
18297;DHT22;18066;52.106;5.534;2023-07-29T03:35:18;18.10;99.90
18297;DHT22;18066;52.106;5.534;2023-07-29T03:37:45;18.10;99.90
18297;DHT22;18066;52.106;5.534;2023-07-29T03:40:14;18.20;99.90
18297;DHT22;18066;52.106;5.534;2023-07-29T03:42:41;18.10;99.90
18297;DHT22;18066;52.106;5.534;2023-07-29T03:45:09;18.20;99.90
18297;DHT22;18066;52.106;5.534;2023-07-29T03:47:39;18.10;99.90
18297;DHT22;18066;52.106;5.534;2023-07-29T03:50:06;18.10;99.90
18297;DHT22;18066;52.106;5.534;2023-07-29T03:52:34;18.10;99.90
18297;DHT22;18066;52.106;5.534;2023-07-29T03:55:01;18.10;99.90
18297;DHT22;18066;52.106;5.534;2023-07-29T03:57:33;18.00;99.90
18297;DHT22;18066;52.106;5.534;2023-07-29T04:00:00;18.10;99.90
18297;DHT22;18066;52.106;5.534;2023-07-29T04:02:27;18.00;99.90
18297;DHT22;18066;52.106;5.534;2023-07-29T04:04:56;18.10;99.90
18297;DHT22;18066;52.106;5.534;2023-07-29T04:07:25;18.00;99.90
18297;DHT22;18066;52.106;5.534;2023-07-29T04:10:00;17.90;99.90
18297;DHT22;18066;52.106;5.534;2023-07-29T04:12:27;17.90;99.90
18297;DHT22;18066;52.106;5.534;2023-07-29T04:14:56;17.90;99.90
18297;DHT22;18066;52.106;5.534;2023-07-29T04:17:27;17.90;99.90
18297;DHT22;18066;52.106;5.534;2023-07-29T04:19:58;17.90;99.90
18297;DHT22;18066;52.106;5.534;2023-07-29T04:22:30;17.90;99.90
18297;DHT22;18066;52.106;5.534;2023-07-29T04:25:09;17.80;99.90
18297;DHT22;18066;52.106;5.534;2023-07-29T04:27:44;17.80;99.90
18297;DHT22;18066;52.106;5.534;2023-07-29T04:30:17;17.80;99.90
18297;DHT22;18066;52.106;5.534;2023-07-29T04:32:45;17.80;99.90
18297;DHT22;18066;52.106;5.534;2023-07-29T04:35:15;17.80;99.90
18297;DHT22;18066;52.106;5.534;2023-07-29T04:37:42;17.80;99.90
18297;DHT22;18066;52.106;5.534;2023-07-29T04:40:14;17.90;99.90
18297;DHT22;18066;52.106;5.534;2023-07-29T04:42:41;17.80;99.90
18297;DHT22;18066;52.106;5.534;2023-07-29T04:45:13;17.80;99.90
18297;DHT22;18066;52.106;5.534;2023-07-29T04:47:46;17.80;99.90
18297;DHT22;18066;52.106;5.534;2023-07-29T04:50:17;17.80;99.90
18297;DHT22;18066;52.106;5.534;2023-07-29T04:52:47;17.80;99.90
18297;DHT22;18066;52.106;5.534;2023-07-29T04:55:14;17.80;99.90
18297;DHT22;18066;52.106;5.534;2023-07-29T04:57:50;17.70;99.90
18297;DHT22;18066;52.106;5.534;2023-07-29T05:00:28;17.70;99.90
18297;DHT22;18066;52.106;5.534;2023-07-29T05:02:58;17.70;99.90
18297;DHT22;18066;52.106;5.534;2023-07-29T05:05:29;17.70;99.90
18297;DHT22;18066;52.106;5.534;2023-07-29T05:08:05;17.70;99.90
18297;DHT22;18066;52.106;5.534;2023-07-29T05:10:35;17.80;99.90
18297;DHT22;18066;52.106;5.534;2023-07-29T05:13:06;17.80;99.90
18297;DHT22;18066;52.106;5.534;2023-07-29T05:15:44;17.80;99.90
18297;DHT22;18066;52.106;5.534;2023-07-29T05:18:15;17.90;99.90
18297;DHT22;18066;52.106;5.534;2023-07-29T05:20:47;17.90;99.90
18297;DHT22;18066;52.106;5.534;2023-07-29T05:23:14;17.90;99.90
18297;DHT22;18066;52.106;5.534;2023-07-29T05:25:41;18.00;99.90
18297;DHT22;18066;52.106;5.534;2023-07-29T05:28:16;18.00;99.90
18297;DHT22;18066;52.106;5.534;2023-07-29T05:30:49;18.10;99.90
18297;DHT22;18066;52.106;5.534;2023-07-29T05:33:23;18.00;99.90
18297;DHT22;18066;52.106;5.534;2023-07-29T05:36:08;18.00;99.90
18297;DHT22;18066;52.106;5.534;2023-07-29T05:38:37;18.00;99.90
18297;DHT22;18066;52.106;5.534;2023-07-29T05:41:18;18.00;99.90
18297;DHT22;18066;52.106;5.534;2023-07-29T05:43:48;18.10;99.90
18297;DHT22;18066;52.106;5.534;2023-07-29T05:46:20;18.10;99.90
18297;DHT22;18066;52.106;5.534;2023-07-29T05:48:51;18.10;99.90
18297;DHT22;18066;52.106;5.534;2023-07-29T05:51:20;18.10;99.90
18297;DHT22;18066;52.106;5.534;2023-07-29T05:53:49;18.20;99.90
18297;DHT22;18066;52.106;5.534;2023-07-29T05:56:20;18.20;99.90
18297;DHT22;18066;52.106;5.534;2023-07-29T05:58:52;18.30;99.90
18297;DHT22;18066;52.106;5.534;2023-07-29T06:01:23;18.30;99.90
18297;DHT22;18066;52.106;5.534;2023-07-29T06:03:53;18.30;99.90
18297;DHT22;18066;52.106;5.534;2023-07-29T06:06:21;18.30;99.90
18297;DHT22;18066;52.106;5.534;2023-07-29T06:08:57;18.40;99.90
18297;DHT22;18066;52.106;5.534;2023-07-29T06:11:39;18.40;99.90
18297;DHT22;18066;52.106;5.534;2023-07-29T06:14:08;18.60;99.90
18297;DHT22;18066;52.106;5.534;2023-07-29T06:16:50;18.60;99.90
18297;DHT22;18066;52.106;5.534;2023-07-29T06:19:24;18.70;99.90
18297;DHT22;18066;52.106;5.534;2023-07-29T06:21:59;18.70;99.90
18297;DHT22;18066;52.106;5.534;2023-07-29T06:24:31;18.60;99.90
18297;DHT22;18066;52.106;5.534;2023-07-29T06:27:00;18.90;99.90
18297;DHT22;18066;52.106;5.534;2023-07-29T06:29:27;19.00;99.90
18297;DHT22;18066;52.106;5.534;2023-07-29T06:37:57;19.40;99.90
18297;DHT22;18066;52.106;5.534;2023-07-29T06:40:42;19.60;99.90
18297;DHT22;18066;52.106;5.534;2023-07-29T06:43:49;19.40;99.90
18297;DHT22;18066;52.106;5.534;2023-07-29T06:47:12;19.30;99.90
18297;DHT22;18066;52.106;5.534;2023-07-29T07:46:35;20.00;99.90
18297;DHT22;18066;52.106;5.534;2023-07-29T07:49:37;20.10;99.90
18297;DHT22;18066;52.106;5.534;2023-07-29T08:51:11;21.10;99.90
18297;DHT22;18066;52.106;5.534;2023-07-29T08:54:01;20.90;99.90
18297;DHT22;18066;52.106;5.534;2023-07-29T09:53:54;21.40;99.90
18297;DHT22;18066;52.106;5.534;2023-07-29T09:56:25;21.30;99.90
18297;DHT22;18066;52.106;5.534;2023-07-29T09:58:58;21.20;99.90
18297;DHT22;18066;52.106;5.534;2023-07-29T10:01:25;21.10;99.90
18297;DHT22;18066;52.106;5.534;2023-07-29T10:03:52;21.00;99.90
18297;DHT22;18066;52.106;5.534;2023-07-29T10:06:27;21.10;99.90
18297;DHT22;18066;52.106;5.534;2023-07-29T10:09:06;20.90;99.90
18297;DHT22;18066;52.106;5.534;2023-07-29T10:11:47;21.00;99.90
18297;DHT22;18066;52.106;5.534;2023-07-29T10:14:22;21.10;99.90
18297;DHT22;18066;52.106;5.534;2023-07-29T10:16:58;21.20;99.90
18297;DHT22;18066;52.106;5.534;2023-07-29T10:19:27;21.20;99.90
18297;DHT22;18066;52.106;5.534;2023-07-29T10:28:55;21.40;99.90
18297;DHT22;18066;52.106;5.534;2023-07-29T10:32:19;21.40;99.90
18297;DHT22;18066;52.106;5.534;2023-07-29T10:38:12;21.10;99.90
18297;DHT22;18066;52.106;5.534;2023-07-29T10:40:44;21.20;99.90
18297;DHT22;18066;52.106;5.534;2023-07-29T10:43:18;21.40;99.90
18297;DHT22;18066;52.106;5.534;2023-07-29T10:45:47;21.50;99.90
18297;DHT22;18066;52.106;5.534;2023-07-29T10:48:40;21.70;99.90
18297;DHT22;18066;52.106;5.534;2023-07-29T10:51:26;21.60;99.90
18297;DHT22;18066;52.106;5.534;2023-07-29T10:53:56;21.50;99.90
18297;DHT22;18066;52.106;5.534;2023-07-29T10:56:30;21.50;99.90
18297;DHT22;18066;52.106;5.534;2023-07-29T10:58:59;21.60;99.90
18297;DHT22;18066;52.106;5.534;2023-07-29T11:01:31;21.40;99.90
18297;DHT22;18066;52.106;5.534;2023-07-29T11:04:25;21.40;99.90
18297;DHT22;18066;52.106;5.534;2023-07-29T11:07:19;21.30;99.90
18297;DHT22;18066;52.106;5.534;2023-07-29T11:10:02;21.40;99.90
18297;DHT22;18066;52.106;5.534;2023-07-29T11:12:37;21.40;99.90
18297;DHT22;18066;52.106;5.534;2023-07-29T11:15:11;21.50;99.90
18297;DHT22;18066;52.106;5.534;2023-07-29T11:17:41;21.50;99.90
18297;DHT22;18066;52.106;5.534;2023-07-29T11:20:09;21.50;99.90
18297;DHT22;18066;52.106;5.534;2023-07-29T11:22:37;21.40;99.90
18297;DHT22;18066;52.106;5.534;2023-07-29T11:25:05;21.30;99.90
18297;DHT22;18066;52.106;5.534;2023-07-29T11:27:33;21.10;99.90
18297;DHT22;18066;52.106;5.534;2023-07-29T11:30:01;21.10;99.90
18297;DHT22;18066;52.106;5.534;2023-07-29T11:32:30;21.00;99.90
18297;DHT22;18066;52.106;5.534;2023-07-29T11:35:01;20.80;99.90
18297;DHT22;18066;52.106;5.534;2023-07-29T11:37:28;20.80;99.90
18297;DHT22;18066;52.106;5.534;2023-07-29T11:39:55;20.70;99.90
18297;DHT22;18066;52.106;5.534;2023-07-29T11:42:24;20.70;99.90
18297;DHT22;18066;52.106;5.534;2023-07-29T11:44:51;20.70;99.90
18297;DHT22;18066;52.106;5.534;2023-07-29T11:47:18;20.70;99.90
18297;DHT22;18066;52.106;5.534;2023-07-29T11:49:44;20.50;99.90
18297;DHT22;18066;52.106;5.534;2023-07-29T11:52:13;20.40;99.90
18297;DHT22;18066;52.106;5.534;2023-07-29T11:54:39;20.30;99.90
18297;DHT22;18066;52.106;5.534;2023-07-29T11:57:07;20.20;99.90
18297;DHT22;18066;52.106;5.534;2023-07-29T11:59:34;20.20;99.90
18297;DHT22;18066;52.106;5.534;2023-07-29T12:02:02;20.30;99.90
18297;DHT22;18066;52.106;5.534;2023-07-29T12:04:32;20.40;99.90
18297;DHT22;18066;52.106;5.534;2023-07-29T12:07:00;20.60;99.90
18297;DHT22;18066;52.106;5.534;2023-07-29T12:09:29;20.70;99.90
18297;DHT22;18066;52.106;5.534;2023-07-29T12:11:56;21.10;99.90
18297;DHT22;18066;52.106;5.534;2023-07-29T12:14:26;21.20;99.90
18297;DHT22;18066;52.106;5.534;2023-07-29T12:16:53;21.40;99.90
18297;DHT22;18066;52.106;5.534;2023-07-29T12:19:20;21.30;99.90
18297;DHT22;18066;52.106;5.534;2023-07-29T12:21:47;21.20;99.90
18297;DHT22;18066;52.106;5.534;2023-07-29T12:24:15;21.10;99.90
18297;DHT22;18066;52.106;5.534;2023-07-29T12:26:44;21.10;99.90
18297;DHT22;18066;52.106;5.534;2023-07-29T12:29:12;21.40;99.90
18297;DHT22;18066;52.106;5.534;2023-07-29T12:31:39;21.80;99.90
18297;DHT22;18066;52.106;5.534;2023-07-29T12:34:06;22.10;99.90
18297;DHT22;18066;52.106;5.534;2023-07-29T12:36:43;22.30;99.90
18297;DHT22;18066;52.106;5.534;2023-07-29T12:39:18;22.50;99.90
18297;DHT22;18066;52.106;5.534;2023-07-29T12:41:46;22.50;99.90
18297;DHT22;18066;52.106;5.534;2023-07-29T12:44:13;22.70;99.90
18297;DHT22;18066;52.106;5.534;2023-07-29T12:46:40;22.60;99.90
18297;DHT22;18066;52.106;5.534;2023-07-29T12:49:07;22.50;99.90
18297;DHT22;18066;52.106;5.534;2023-07-29T12:51:34;22.40;99.90
18297;DHT22;18066;52.106;5.534;2023-07-29T12:54:01;22.30;99.90
18297;DHT22;18066;52.106;5.534;2023-07-29T12:56:29;22.20;99.90
18297;DHT22;18066;52.106;5.534;2023-07-29T12:58:57;22.30;99.90
18297;DHT22;18066;52.106;5.534;2023-07-29T13:01:25;22.30;99.90
18297;DHT22;18066;52.106;5.534;2023-07-29T13:03:52;22.30;99.90
18297;DHT22;18066;52.106;5.534;2023-07-29T13:06:19;22.40;99.90
18297;DHT22;18066;52.106;5.534;2023-07-29T13:08:46;22.50;99.90
18297;DHT22;18066;52.106;5.534;2023-07-29T13:11:13;22.70;99.90
18297;DHT22;18066;52.106;5.534;2023-07-29T13:13:40;22.60;99.90
18297;DHT22;18066;52.106;5.534;2023-07-29T13:16:08;22.60;99.90
18297;DHT22;18066;52.106;5.534;2023-07-29T13:18:35;22.50;99.90
18297;DHT22;18066;52.106;5.534;2023-07-29T13:21:02;22.30;99.90
18297;DHT22;18066;52.106;5.534;2023-07-29T13:23:29;22.30;99.90
18297;DHT22;18066;52.106;5.534;2023-07-29T13:25:56;22.50;99.90
18297;DHT22;18066;52.106;5.534;2023-07-29T13:28:23;22.90;99.90
18297;DHT22;18066;52.106;5.534;2023-07-29T13:30:50;23.10;99.90
18297;DHT22;18066;52.106;5.534;2023-07-29T13:33:18;23.20;99.90
18297;DHT22;18066;52.106;5.534;2023-07-29T13:35:45;23.10;99.90
18297;DHT22;18066;52.106;5.534;2023-07-29T13:38:12;22.80;99.90
18297;DHT22;18066;52.106;5.534;2023-07-29T13:40:39;22.60;99.90
18297;DHT22;18066;52.106;5.534;2023-07-29T13:43:06;22.70;99.90
18297;DHT22;18066;52.106;5.534;2023-07-29T13:45:34;22.90;99.90
18297;DHT22;18066;52.106;5.534;2023-07-29T13:48:01;22.80;99.90
18297;DHT22;18066;52.106;5.534;2023-07-29T13:50:29;22.70;99.90
18297;DHT22;18066;52.106;5.534;2023-07-29T13:52:56;22.70;99.90
18297;DHT22;18066;52.106;5.534;2023-07-29T13:55:23;22.70;99.90
18297;DHT22;18066;52.106;5.534;2023-07-29T13:57:49;22.70;99.90
18297;DHT22;18066;52.106;5.534;2023-07-29T14:00:16;22.90;99.90
18297;DHT22;18066;52.106;5.534;2023-07-29T14:02:43;23.30;99.90
18297;DHT22;18066;52.106;5.534;2023-07-29T14:05:10;23.50;99.90
18297;DHT22;18066;52.106;5.534;2023-07-29T14:07:38;23.60;99.90
18297;DHT22;18066;52.106;5.534;2023-07-29T14:10:06;23.60;99.90
18297;DHT22;18066;52.106;5.534;2023-07-29T14:12:34;23.70;99.90
18297;DHT22;18066;52.106;5.534;2023-07-29T14:15:00;23.70;99.90
18297;DHT22;18066;52.106;5.534;2023-07-29T14:17:27;23.80;99.90
18297;DHT22;18066;52.106;5.534;2023-07-29T14:19:54;24.20;99.90
18297;DHT22;18066;52.106;5.534;2023-07-29T14:22:21;24.40;99.90
18297;DHT22;18066;52.106;5.534;2023-07-29T14:24:49;24.30;99.90
18297;DHT22;18066;52.106;5.534;2023-07-29T14:27:16;24.30;99.90
18297;DHT22;18066;52.106;5.534;2023-07-29T14:29:43;24.40;99.90
18297;DHT22;18066;52.106;5.534;2023-07-29T14:32:10;24.50;99.90
18297;DHT22;18066;52.106;5.534;2023-07-29T14:34:37;24.70;99.90
18297;DHT22;18066;52.106;5.534;2023-07-29T14:37:05;25.20;99.90
18297;DHT22;18066;52.106;5.534;2023-07-29T14:39:31;25.80;99.90
18297;DHT22;18066;52.106;5.534;2023-07-29T14:42:00;26.10;99.90
18297;DHT22;18066;52.106;5.534;2023-07-29T14:44:27;25.80;99.90
18297;DHT22;18066;52.106;5.534;2023-07-29T14:46:53;25.80;99.90
18297;DHT22;18066;52.106;5.534;2023-07-29T14:49:20;25.70;99.90
18297;DHT22;18066;52.106;5.534;2023-07-29T14:51:47;26.00;99.90
18297;DHT22;18066;52.106;5.534;2023-07-29T14:54:14;26.90;99.90
18297;DHT22;18066;52.106;5.534;2023-07-29T14:56:41;27.60;99.90
18297;DHT22;18066;52.106;5.534;2023-07-29T14:59:09;28.30;99.90
18297;DHT22;18066;52.106;5.534;2023-07-29T15:01:36;29.10;99.90
18297;DHT22;18066;52.106;5.534;2023-07-29T15:04:03;29.10;99.90
18297;DHT22;18066;52.106;5.534;2023-07-29T15:06:30;27.20;99.90
18297;DHT22;18066;52.106;5.534;2023-07-29T15:08:57;25.90;99.90
18297;DHT22;18066;52.106;5.534;2023-07-29T15:11:24;25.00;99.90
18297;DHT22;18066;52.106;5.534;2023-07-29T15:13:51;24.60;99.90
18297;DHT22;18066;52.106;5.534;2023-07-29T15:16:23;24.00;99.90
18297;DHT22;18066;52.106;5.534;2023-07-29T15:18:50;23.60;99.90
18297;DHT22;18066;52.106;5.534;2023-07-29T15:21:17;24.00;99.90
18297;DHT22;18066;52.106;5.534;2023-07-29T15:23:44;24.90;99.90
18297;DHT22;18066;52.106;5.534;2023-07-29T15:26:11;24.80;99.90
18297;DHT22;18066;52.106;5.534;2023-07-29T15:28:38;24.80;99.90
18297;DHT22;18066;52.106;5.534;2023-07-29T15:31:05;26.30;99.90
18297;DHT22;18066;52.106;5.534;2023-07-29T15:33:34;27.80;99.90
18297;DHT22;18066;52.106;5.534;2023-07-29T15:36:01;28.10;99.90
18297;DHT22;18066;52.106;5.534;2023-07-29T15:38:27;27.10;99.90
18297;DHT22;18066;52.106;5.534;2023-07-29T15:40:54;25.80;99.90
18297;DHT22;18066;52.106;5.534;2023-07-29T15:43:21;24.90;99.90
18297;DHT22;18066;52.106;5.534;2023-07-29T15:45:49;24.30;99.90
18297;DHT22;18066;52.106;5.534;2023-07-29T15:48:16;23.90;99.90
18297;DHT22;18066;52.106;5.534;2023-07-29T15:50:44;23.60;99.90
18297;DHT22;18066;52.106;5.534;2023-07-29T15:53:11;23.30;99.90
18297;DHT22;18066;52.106;5.534;2023-07-29T15:55:38;23.00;99.90
18297;DHT22;18066;52.106;5.534;2023-07-29T15:58:05;22.40;99.90
18297;DHT22;18066;52.106;5.534;2023-07-29T16:00:32;21.90;99.90
18297;DHT22;18066;52.106;5.534;2023-07-29T16:02:59;21.30;99.90
18297;DHT22;18066;52.106;5.534;2023-07-29T16:05:26;21.40;99.90
18297;DHT22;18066;52.106;5.534;2023-07-29T16:07:54;21.90;99.90
18297;DHT22;18066;52.106;5.534;2023-07-29T16:10:23;22.00;99.90
18297;DHT22;18066;52.106;5.534;2023-07-29T16:12:49;22.80;99.90
18297;DHT22;18066;52.106;5.534;2023-07-29T16:15:16;25.60;99.90
18297;DHT22;18066;52.106;5.534;2023-07-29T16:17:43;25.90;99.90
18297;DHT22;18066;52.106;5.534;2023-07-29T16:20:12;25.50;99.90
18297;DHT22;18066;52.106;5.534;2023-07-29T16:22:39;26.50;99.90
18297;DHT22;18066;52.106;5.534;2023-07-29T16:25:08;25.90;99.90
18297;DHT22;18066;52.106;5.534;2023-07-29T16:27:34;25.10;99.90
18297;DHT22;18066;52.106;5.534;2023-07-29T16:30:03;25.60;99.90
18297;DHT22;18066;52.106;5.534;2023-07-29T16:32:30;26.70;99.90
18297;DHT22;18066;52.106;5.534;2023-07-29T16:34:57;27.60;99.90
18297;DHT22;18066;52.106;5.534;2023-07-29T16:37:23;29.90;99.90
18297;DHT22;18066;52.106;5.534;2023-07-29T16:39:50;32.10;99.90
18297;DHT22;18066;52.106;5.534;2023-07-29T16:42:19;32.90;99.90
18297;DHT22;18066;52.106;5.534;2023-07-29T16:44:46;33.80;99.90
18297;DHT22;18066;52.106;5.534;2023-07-29T16:47:13;34.40;99.90
18297;DHT22;18066;52.106;5.534;2023-07-29T16:49:40;33.80;99.90
18297;DHT22;18066;52.106;5.534;2023-07-29T16:52:07;34.80;99.90
18297;DHT22;18066;52.106;5.534;2023-07-29T16:54:34;35.90;99.90
18297;DHT22;18066;52.106;5.534;2023-07-29T16:57:01;36.60;99.90
18297;DHT22;18066;52.106;5.534;2023-07-29T16:59:29;37.00;99.90
18297;DHT22;18066;52.106;5.534;2023-07-29T17:01:56;37.00;99.90
18297;DHT22;18066;52.106;5.534;2023-07-29T17:04:23;37.30;99.90
18297;DHT22;18066;52.106;5.534;2023-07-29T17:06:50;37.70;99.90
18297;DHT22;18066;52.106;5.534;2023-07-29T17:09:16;37.90;99.90
18297;DHT22;18066;52.106;5.534;2023-07-29T17:11:44;37.70;99.90
18297;DHT22;18066;52.106;5.534;2023-07-29T17:14:10;36.80;99.90
18297;DHT22;18066;52.106;5.534;2023-07-29T17:16:39;34.90;99.90
18297;DHT22;18066;52.106;5.534;2023-07-29T17:19:05;31.90;99.90
18297;DHT22;18066;52.106;5.534;2023-07-29T17:21:32;29.20;99.90
18297;DHT22;18066;52.106;5.534;2023-07-29T17:24:00;27.40;99.90
18297;DHT22;18066;52.106;5.534;2023-07-29T17:26:27;26.60;99.90
18297;DHT22;18066;52.106;5.534;2023-07-29T17:28:54;26.00;99.90
18297;DHT22;18066;52.106;5.534;2023-07-29T17:31:21;25.50;99.90
18297;DHT22;18066;52.106;5.534;2023-07-29T17:33:49;25.30;99.90
18297;DHT22;18066;52.106;5.534;2023-07-29T17:36:16;25.90;99.90
18297;DHT22;18066;52.106;5.534;2023-07-29T18:09:53;25.20;99.90
18297;DHT22;18066;52.106;5.534;2023-07-29T18:12:20;24.30;99.90
18297;DHT22;18066;52.106;5.534;2023-07-29T18:14:48;23.90;99.90
18297;DHT22;18066;52.106;5.534;2023-07-29T18:17:15;23.60;99.90
18297;DHT22;18066;52.106;5.534;2023-07-29T18:19:42;23.40;99.90
18297;DHT22;18066;52.106;5.534;2023-07-29T18:22:09;23.30;99.90
18297;DHT22;18066;52.106;5.534;2023-07-29T18:24:37;23.30;99.90
18297;DHT22;18066;52.106;5.534;2023-07-29T18:27:06;23.30;99.90
18297;DHT22;18066;52.106;5.534;2023-07-29T18:29:34;23.30;99.90
18297;DHT22;18066;52.106;5.534;2023-07-29T18:32:01;23.10;99.90
18297;DHT22;18066;52.106;5.534;2023-07-29T18:34:28;22.70;99.90
18297;DHT22;18066;52.106;5.534;2023-07-29T18:36:55;22.10;99.90
18297;DHT22;18066;52.106;5.534;2023-07-29T18:39:22;21.80;99.90
18297;DHT22;18066;52.106;5.534;2023-07-29T18:41:49;21.60;99.90
18297;DHT22;18066;52.106;5.534;2023-07-29T18:44:17;21.40;99.90
18297;DHT22;18066;52.106;5.534;2023-07-29T18:46:44;21.20;99.90
18297;DHT22;18066;52.106;5.534;2023-07-29T18:49:12;21.10;99.90
18297;DHT22;18066;52.106;5.534;2023-07-29T18:51:39;21.00;99.90
18297;DHT22;18066;52.106;5.534;2023-07-29T18:54:07;21.00;99.90
18297;DHT22;18066;52.106;5.534;2023-07-29T18:56:34;20.80;99.90
18297;DHT22;18066;52.106;5.534;2023-07-29T18:59:00;20.70;99.90
18297;DHT22;18066;52.106;5.534;2023-07-29T19:01:29;20.60;99.90
18297;DHT22;18066;52.106;5.534;2023-07-29T19:03:56;20.50;99.90
18297;DHT22;18066;52.106;5.534;2023-07-29T19:06:22;20.40;99.90
18297;DHT22;18066;52.106;5.534;2023-07-29T19:08:49;20.30;99.90
18297;DHT22;18066;52.106;5.534;2023-07-29T19:11:16;20.30;99.90
18297;DHT22;18066;52.106;5.534;2023-07-29T19:13:43;20.20;99.90
18297;DHT22;18066;52.106;5.534;2023-07-29T19:16:10;20.30;99.90
18297;DHT22;18066;52.106;5.534;2023-07-29T19:18:39;20.20;99.90
18297;DHT22;18066;52.106;5.534;2023-07-29T19:21:06;20.30;99.90
18297;DHT22;18066;52.106;5.534;2023-07-29T19:23:33;20.20;99.90
18297;DHT22;18066;52.106;5.534;2023-07-29T19:26:00;20.10;99.90